Time;durP1;ratioP1;P1;durP2;ratioP2;P2;SDS_P1;SDS_P2;PMS_P1;PMS_P2;Temp;Humidity;BMP_temperature;BMP_pressure;BME280_temperature;BME280_humidity;BME280_pressure;Samples;Min_cycle;Max_cycle;Signal;HPM_P1;HPM_P2
2021/08/28 00:00:31;;;;;;;6.50;2.90;;;17.30;94.80;;;;;;5071437;28;20072;-83
2021/08/28 00:02:57;;;;;;;7.03;2.40;;;17.30;94.80;;;;;;5058583;28;20020;-83
2021/08/28 00:05:22;;;;;;;5.60;2.15;;;17.30;94.90;;;;;;5040660;28;20028;-83
2021/08/28 00:07:48;;;;;;;5.90;2.05;;;17.30;94.90;;;;;;5061259;28;20033;-83
2021/08/28 00:10:14;;;;;;;7.07;2.80;;;17.20;94.90;;;;;;5058551;28;20036;-86
2021/08/28 00:12:40;;;;;;;6.97;2.92;;;17.30;95.00;;;;;;5056203;28;20487;-83
2021/08/28 00:15:09;;;;;;;6.97;2.85;;;17.20;95.10;;;;;;5055029;28;20025;-83
2021/08/28 00:17:35;;;;;;;4.90;2.20;;;17.20;95.10;;;;;;5050887;28;20033;-83
2021/08/28 00:20:06;;;;;;;7.03;2.50;;;17.20;95.00;;;;;;5048627;28;20025;-84
2021/08/28 00:22:31;;;;;;;7.85;2.50;;;17.20;95.10;;;;;;5028488;28;20072;-83
2021/08/28 00:24:57;;;;;;;6.10;2.33;;;17.20;95.10;;;;;;5054225;28;20492;-84
2021/08/28 00:27:23;;;;;;;6.57;2.30;;;17.20;95.10;;;;;;5035165;28;20029;-84
2021/08/28 00:29:49;;;;;;;7.15;2.78;;;17.20;95.10;;;;;;5055165;28;20040;-82
2021/08/28 00:32:15;;;;;;;3.53;2.03;;;17.20;95.10;;;;;;5054761;28;20035;-83
2021/08/28 00:34:41;;;;;;;6.70;2.28;;;17.10;95.20;;;;;;5038067;28;20067;-84
2021/08/28 00:37:06;;;;;;;5.57;2.58;;;17.20;95.20;;;;;;5071995;28;20033;-82
2021/08/28 00:39:32;;;;;;;4.90;2.10;;;17.10;95.30;;;;;;5072068;28;20032;-83
2021/08/28 00:41:59;;;;;;;8.07;2.85;;;17.10;95.30;;;;;;5060349;28;20021;-83
2021/08/28 00:44:25;;;;;;;7.78;2.63;;;17.10;95.30;;;;;;5083660;28;20111;-84
2021/08/28 00:46:52;;;;;;;5.88;2.63;;;17.10;95.40;;;;;;5107038;28;20008;-85
2021/08/28 00:49:17;;;;;;;6.00;2.40;;;17.10;95.40;;;;;;5117766;28;20016;-82
2021/08/28 00:51:45;;;;;;;7.53;2.75;;;17.10;95.40;;;;;;5114094;28;20030;-82
2021/08/28 00:54:11;;;;;;;7.78;2.55;;;17.10;95.40;;;;;;5093430;28;20046;-83
2021/08/28 00:56:36;;;;;;;6.78;2.35;;;17.10;95.40;;;;;;5104626;28;20024;-81
2021/08/28 00:59:02;;;;;;;7.13;2.40;;;17.10;95.50;;;;;;5069196;28;20088;-84
2021/08/28 01:01:35;;;;;;;5.88;2.33;;;17.10;95.50;;;;;;5066813;28;20128;-82
2021/08/28 01:04:02;;;;;;;8.95;3.30;;;17.10;95.50;;;;;;5057872;28;20428;-83
2021/08/28 01:06:51;;;;;;;6.82;2.55;;;17.10;95.60;;;;;;5049534;28;20033;-83
2021/08/28 01:09:25;;;;;;;6.03;2.55;;;17.10;95.70;;;;;;5052322;28;20014;-82
2021/08/28 01:12:01;;;;;;;6.38;2.50;;;17.10;95.90;;;;;;5069984;28;20047;-84
2021/08/28 01:14:28;;;;;;;6.25;2.60;;;17.10;95.70;;;;;;5045191;28;20016;-83
2021/08/28 01:16:59;;;;;;;7.10;2.30;;;17.10;95.70;;;;;;5077756;28;20499;-83
2021/08/28 01:19:49;;;;;;;7.50;2.63;;;17.10;95.70;;;;;;5072836;28;20028;-82
2021/08/28 01:22:17;;;;;;;6.07;2.73;;;17.10;95.80;;;;;;5055677;28;20090;-83
2021/08/28 01:24:46;;;;;;;6.07;2.50;;;17.10;95.70;;;;;;5075565;28;20025;-83
2021/08/28 01:27:15;;;;;;;7.28;2.53;;;17.10;95.80;;;;;;5064784;28;20029;-83
2021/08/28 01:29:42;;;;;;;8.27;2.80;;;17.10;95.80;;;;;;5053423;28;20107;-83
2021/08/28 01:32:09;;;;;;;6.18;2.58;;;17.10;95.90;;;;;;5074290;28;20028;-83
2021/08/28 01:34:37;;;;;;;9.40;2.80;;;17.10;95.90;;;;;;5075418;28;20054;-83
2021/08/28 01:37:04;;;;;;;6.22;2.45;;;17.10;95.90;;;;;;5044160;28;20102;-83
2021/08/28 01:39:32;;;;;;;7.25;2.88;;;17.10;95.90;;;;;;5075690;28;20087;-83
2021/08/28 01:42:01;;;;;;;6.47;2.60;;;17.10;95.90;;;;;;5075283;28;20104;-83
2021/08/28 01:44:27;;;;;;;6.75;2.83;;;17.10;96.00;;;;;;5070544;28;20055;-83
2021/08/28 01:46:53;;;;;;;6.57;2.65;;;17.10;96.00;;;;;;5060094;28;20020;-88
2021/08/28 01:49:21;;;;;;;7.35;2.55;;;17.10;96.10;;;;;;5049582;28;20063;-85
2021/08/28 01:51:48;;;;;;;8.93;2.83;;;17.10;96.10;;;;;;5059682;28;20028;-83
2021/08/28 01:54:14;;;;;;;10.73;2.88;;;17.00;96.10;;;;;;5074387;28;20032;-83
2021/08/28 01:56:40;;;;;;;7.82;2.72;;;17.10;96.20;;;;;;5056997;28;20032;-83
2021/08/28 01:59:06;;;;;;;10.40;3.10;;;17.10;96.20;;;;;;5060300;28;20029;-84
2021/08/28 02:01:32;;;;;;;11.32;2.95;;;17.10;96.20;;;;;;5060659;28;20102;-83
2021/08/28 02:03:58;;;;;;;6.95;2.58;;;17.10;96.20;;;;;;5073368;28;20048;-84
2021/08/28 02:06:42;;;;;;;7.32;2.65;;;17.10;96.20;;;;;;5056651;28;20468;-82
2021/08/28 02:09:39;;;;;;;5.97;2.67;;;17.00;96.30;;;;;;5075120;28;20047;-83
2021/08/28 02:12:29;;;;;;;5.20;2.72;;;17.00;96.30;;;;;;5042545;28;20029;-83
2021/08/28 02:15:02;;;;;;;6.63;2.42;;;17.00;96.40;;;;;;5067500;28;20033;-83
2021/08/28 02:17:30;;;;;;;10.63;3.08;;;17.00;96.40;;;;;;5064382;28;20111;-83
2021/08/28 02:20:04;;;;;;;6.63;2.90;;;17.00;96.40;;;;;;5055514;28;20032;-84
2021/08/28 02:22:42;;;;;;;5.38;2.90;;;17.00;96.40;;;;;;5073156;28;20044;-82
2021/08/28 02:25:18;;;;;;;8.32;3.40;;;17.00;96.50;;;;;;5074209;28;20027;-83
2021/08/28 02:27:48;;;;;;;6.60;2.70;;;17.00;96.50;;;;;;5064908;28;20024;-84
2021/08/28 02:30:18;;;;;;;6.50;2.50;;;17.00;96.60;;;;;;5053066;28;20021;-83
2021/08/28 02:32:47;;;;;;;10.98;3.38;;;17.00;96.60;;;;;;5062873;28;20259;-82
2021/08/28 02:35:14;;;;;;;7.28;2.78;;;17.00;96.60;;;;;;5074024;28;20039;-85
2021/08/28 02:37:42;;;;;;;9.07;3.60;;;17.00;96.60;;;;;;5030672;28;20104;-83
2021/08/28 02:40:10;;;;;;;6.32;2.90;;;17.00;96.60;;;;;;5050854;28;20074;-83
2021/08/28 02:42:39;;;;;;;6.00;2.67;;;17.00;96.60;;;;;;5073695;28;20032;-83
2021/08/28 02:45:06;;;;;;;6.28;2.50;;;17.00;96.60;;;;;;5073889;28;20031;-83
2021/08/28 02:47:33;;;;;;;8.07;2.90;;;17.00;96.70;;;;;;5055825;28;20025;-83
2021/08/28 02:50:00;;;;;;;9.07;2.90;;;17.00;96.70;;;;;;5039224;28;20020;-83
2021/08/28 02:52:28;;;;;;;5.13;2.70;;;17.00;96.70;;;;;;5063980;28;20033;-86
2021/08/28 02:55:00;;;;;;;7.78;2.60;;;17.00;96.70;;;;;;5068149;28;20031;-83
2021/08/28 02:57:29;;;;;;;8.40;3.33;;;17.00;96.70;;;;;;5066399;28;20073;-84
2021/08/28 02:59:55;;;;;;;7.13;2.60;;;17.00;96.70;;;;;;5072433;28;20013;-82
2021/08/28 03:02:22;;;;;;;6.88;3.33;;;17.00;96.80;;;;;;5059029;28;20068;-83
2021/08/28 03:04:50;;;;;;;7.63;2.97;;;17.00;96.80;;;;;;5035287;28;20025;-83
2021/08/28 03:07:17;;;;;;;6.85;2.60;;;17.00;96.80;;;;;;5071223;28;20059;-83
2021/08/28 03:09:44;;;;;;;9.05;3.20;;;17.00;96.80;;;;;;5053942;28;20048;-83
2021/08/28 03:12:09;;;;;;;7.95;3.03;;;17.00;96.80;;;;;;5048880;28;20031;-83
2021/08/28 03:14:35;;;;;;;7.35;3.10;;;17.00;96.90;;;;;;5053169;28;20025;-83
2021/08/28 03:17:04;;;;;;;6.50;2.80;;;17.00;96.90;;;;;;5054377;28;20025;-84
2021/08/28 03:19:31;;;;;;;6.60;2.60;;;17.00;96.90;;;;;;5087518;28;20460;-86
2021/08/28 03:21:57;;;;;;;5.47;3.00;;;17.00;97.00;;;;;;5058908;28;20028;-83
2021/08/28 03:24:27;;;;;;;8.90;2.80;;;17.00;97.00;;;;;;5058262;28;20132;-83
2021/08/28 03:26:55;;;;;;;6.50;2.75;;;17.00;97.10;;;;;;5077318;28;20424;-83
2021/08/28 03:29:21;;;;;;;7.47;2.65;;;17.00;97.10;;;;;;5093044;28;20020;-84
2021/08/28 03:31:50;;;;;;;5.05;2.35;;;17.00;97.10;;;;;;5075243;28;20036;-83
2021/08/28 03:34:17;;;;;;;5.93;2.53;;;17.00;97.20;;;;;;5074957;28;20020;-83
2021/08/28 03:36:44;;;;;;;5.57;2.10;;;17.00;97.20;;;;;;5078314;28;20028;-83
2021/08/28 03:39:10;;;;;;;7.03;2.33;;;17.00;97.20;;;;;;5075233;28;20032;-83
2021/08/28 03:41:38;;;;;;;5.57;2.50;;;17.00;97.20;;;;;;5058409;28;20596;-83
2021/08/28 03:44:04;;;;;;;5.97;2.33;;;17.00;97.20;;;;;;5086965;28;20020;-83
2021/08/28 03:46:33;;;;;;;4.22;2.33;;;17.00;97.20;;;;;;5034817;28;20021;-83
2021/08/28 03:48:59;;;;;;;5.53;2.28;;;17.00;97.20;;;;;;5089591;28;20039;-83
2021/08/28 03:51:25;;;;;;;7.30;2.33;;;17.00;97.20;;;;;;5075037;28;20417;-83
2021/08/28 03:53:51;;;;;;;6.32;1.90;;;17.00;97.30;;;;;;5055014;28;20067;-83
2021/08/28 03:56:17;;;;;;;5.10;2.22;;;17.00;97.30;;;;;;5043123;28;20040;-83
2021/08/28 03:58:42;;;;;;;8.48;2.58;;;17.00;97.30;;;;;;5069709;28;20028;-84
2021/08/28 04:01:08;;;;;;;5.82;2.42;;;17.00;97.30;;;;;;5051765;28;20029;-83
2021/08/28 04:03:34;;;;;;;6.40;2.45;;;17.00;97.40;;;;;;5063333;28;20020;-83
2021/08/28 04:05:59;;;;;;;4.63;2.00;;;16.90;97.40;;;;;;5037529;28;20036;-83
2021/08/28 04:08:25;;;;;;;5.35;2.50;;;17.00;97.50;;;;;;5060962;28;20503;-84
2021/08/28 04:10:51;;;;;;;5.00;2.30;;;17.00;97.50;;;;;;5068981;28;20039;-84
2021/08/28 04:13:16;;;;;;;5.43;2.55;;;17.00;97.50;;;;;;5062383;28;20031;-85
2021/08/28 04:15:42;;;;;;;6.32;2.47;;;17.00;97.50;;;;;;5058618;28;20060;-85
2021/08/28 04:18:08;;;;;;;5.15;2.40;;;17.00;97.60;;;;;;5053109;28;20366;-84
2021/08/28 04:20:34;;;;;;;7.03;2.88;;;16.90;97.60;;;;;;5060540;28;20025;-83
2021/08/28 04:23:00;;;;;;;8.98;2.67;;;17.00;97.60;;;;;;5076902;28;20055;-84
2021/08/28 04:25:25;;;;;;;6.47;2.55;;;16.90;97.60;;;;;;5097406;28;20103;-84
2021/08/28 04:27:52;;;;;;;7.68;2.60;;;16.90;97.70;;;;;;5070199;28;20427;-84
2021/08/28 04:30:18;;;;;;;5.13;2.85;;;17.00;97.70;;;;;;5089117;28;20012;-84
2021/08/28 04:32:44;;;;;;;5.43;2.88;;;16.90;97.70;;;;;;5084311;28;20012;-84
2021/08/28 04:35:10;;;;;;;6.88;2.47;;;16.90;97.70;;;;;;5056645;28;20029;-85
2021/08/28 04:37:35;;;;;;;5.65;2.60;;;16.90;97.70;;;;;;5062772;28;20029;-90
2021/08/28 04:40:01;;;;;;;6.65;2.70;;;16.90;97.70;;;;;;5099823;28;20044;-88
2021/08/28 04:42:27;;;;;;;4.90;2.60;;;16.90;98.00;;;;;;5101828;28;20468;-85
2021/08/28 04:44:55;;;;;;;5.45;2.63;;;16.90;97.80;;;;;;5039588;28;20059;-86
2021/08/28 04:47:21;;;;;;;5.53;2.58;;;16.90;97.80;;;;;;5052727;28;20120;-84
2021/08/28 04:49:48;;;;;;;6.03;2.70;;;16.90;97.80;;;;;;5059065;28;20107;-84
2021/08/28 04:52:13;;;;;;;6.75;2.97;;;16.90;97.80;;;;;;5079009;28;20045;-91
2021/08/28 04:54:40;;;;;;;6.03;2.97;;;16.90;97.80;;;;;;5060671;28;20362;-84
2021/08/28 04:57:07;;;;;;;4.45;2.80;;;16.90;97.80;;;;;;5061116;28;20361;-83
2021/08/28 04:59:33;;;;;;;4.95;2.67;;;16.90;97.80;;;;;;5064386;28;20035;-84
2021/08/28 05:01:59;;;;;;;6.22;2.78;;;16.90;97.80;;;;;;5061503;28;20024;-84
2021/08/28 05:04:25;;;;;;;4.07;2.38;;;16.90;97.80;;;;;;5077634;28;20357;-84
2021/08/28 05:06:51;;;;;;;6.22;3.03;;;16.90;97.80;;;;;;5096263;28;20024;-84
2021/08/28 05:09:17;;;;;;;4.25;2.47;;;16.90;97.90;;;;;;5093129;28;21282;-85
2021/08/28 05:11:43;;;;;;;4.78;2.67;;;16.90;97.90;;;;;;5057865;28;20032;-84
2021/08/28 05:14:09;;;;;;;4.40;2.65;;;16.90;97.90;;;;;;5058057;28;20475;-84
2021/08/28 05:16:34;;;;;;;4.10;2.53;;;16.80;97.90;;;;;;5060713;28;20057;-84
2021/08/28 05:19:00;;;;;;;5.45;2.90;;;16.90;97.90;;;;;;5060769;28;20017;-84
2021/08/28 05:21:25;;;;;;;5.75;2.72;;;16.80;97.90;;;;;;5057517;28;20093;-85
2021/08/28 05:23:51;;;;;;;4.97;2.90;;;16.90;98.00;;;;;;5077773;28;20059;-84
2021/08/28 05:26:17;;;;;;;6.07;3.30;;;16.90;98.00;;;;;;5060478;28;20032;-89
2021/08/28 05:28:42;;;;;;;4.85;2.60;;;16.90;98.00;;;;;;5072922;28;20013;-84
2021/08/28 05:31:08;;;;;;;4.65;2.40;;;16.90;98.00;;;;;;5062330;28;20083;-84
2021/08/28 05:33:34;;;;;;;5.07;3.00;;;16.80;98.00;;;;;;5075032;28;20016;-84
2021/08/28 05:35:59;;;;;;;4.53;2.70;;;16.90;98.10;;;;;;5023842;28;20044;-84
2021/08/28 05:38:25;;;;;;;6.20;3.05;;;16.90;98.30;;;;;;5045300;28;20056;-84
2021/08/28 05:40:50;;;;;;;5.22;3.00;;;16.90;98.10;;;;;;5071769;28;20428;-84
2021/08/28 05:43:16;;;;;;;6.03;2.60;;;16.90;98.10;;;;;;5073685;28;20044;-84
2021/08/28 05:45:42;;;;;;;5.45;2.72;;;16.90;98.10;;;;;;5085098;28;20083;-84
2021/08/28 05:48:08;;;;;;;5.60;2.90;;;16.90;98.20;;;;;;5053028;28;20017;-84
2021/08/28 05:50:33;;;;;;;7.43;2.58;;;16.90;98.10;;;;;;5074504;28;20024;-84
2021/08/28 05:52:59;;;;;;;5.10;2.70;;;16.90;98.20;;;;;;5041107;28;20396;-84
2021/08/28 05:55:25;;;;;;;5.20;2.75;;;16.90;98.20;;;;;;5057513;28;20039;-84
2021/08/28 05:57:50;;;;;;;7.10;3.03;;;16.90;98.20;;;;;;5053774;28;20528;-82
2021/08/28 06:00:16;;;;;;;6.05;3.00;;;16.90;98.20;;;;;;5063956;28;20025;-83
2021/08/28 06:02:42;;;;;;;5.90;2.45;;;16.90;98.20;;;;;;5074455;28;20033;-82
2021/08/28 06:05:09;;;;;;;4.63;2.80;;;16.90;98.20;;;;;;5040248;28;20025;-81
2021/08/28 06:07:35;;;;;;;5.22;2.88;;;17.00;98.20;;;;;;5076000;28;20012;-82
2021/08/28 06:10:02;;;;;;;5.57;3.10;;;16.90;98.20;;;;;;5093471;28;20031;-82
2021/08/28 06:12:28;;;;;;;6.30;3.00;;;16.90;98.20;;;;;;5093572;28;20495;-84
2021/08/28 06:14:53;;;;;;;7.45;3.17;;;17.00;98.20;;;;;;5052868;28;20029;-83
2021/08/28 06:17:19;;;;;;;4.55;2.58;;;17.00;98.20;;;;;;5056756;28;20467;-81
2021/08/28 06:19:45;;;;;;;5.25;2.50;;;17.00;98.20;;;;;;5035431;28;20028;-82
2021/08/28 06:22:10;;;;;;;7.18;3.25;;;17.00;98.20;;;;;;5056267;28;20091;-82
2021/08/28 06:24:36;;;;;;;5.28;2.70;;;17.00;98.20;;;;;;5039190;28;20091;-81
2021/08/28 06:27:03;;;;;;;6.38;3.08;;;17.00;98.30;;;;;;5056374;28;20102;-82
2021/08/28 06:29:29;;;;;;;6.68;2.80;;;17.10;98.30;;;;;;5068764;28;20031;-83
2021/08/28 06:31:55;;;;;;;6.70;2.72;;;17.10;98.30;;;;;;5069991;28;20082;-82
2021/08/28 06:34:21;;;;;;;5.53;2.90;;;17.10;98.30;;;;;;5049940;28;20012;-84
2021/08/28 06:36:47;;;;;;;6.63;3.40;;;17.10;98.30;;;;;;5045584;28;20494;-84
2021/08/28 06:39:13;;;;;;;6.55;3.03;;;17.10;98.30;;;;;;5059551;28;20038;-82
2021/08/28 06:41:38;;;;;;;5.78;2.70;;;17.10;98.30;;;;;;5076085;28;20028;-82
2021/08/28 06:44:04;;;;;;;4.32;2.60;;;17.10;98.30;;;;;;5060133;28;20107;-82
2021/08/28 06:46:30;;;;;;;5.40;3.03;;;17.10;98.30;;;;;;5075833;28;20394;-84
2021/08/28 06:48:57;;;;;;;3.92;2.67;;;17.10;98.30;;;;;;5076006;28;20119;-83
2021/08/28 06:51:23;;;;;;;3.78;2.60;;;17.10;98.30;;;;;;5059443;28;20035;-82
2021/08/28 06:53:49;;;;;;;4.35;2.63;;;17.10;98.30;;;;;;5089335;28;20428;-83
2021/08/28 06:56:16;;;;;;;6.05;2.75;;;17.20;98.40;;;;;;5039573;28;20041;-82
2021/08/28 06:58:42;;;;;;;4.88;2.58;;;17.20;98.40;;;;;;5041824;28;20036;-81
2021/08/28 07:01:07;;;;;;;5.22;3.05;;;17.20;98.40;;;;;;5065000;28;20377;-82
2021/08/28 07:03:33;;;;;;;5.05;2.90;;;17.20;98.40;;;;;;5064873;28;20032;-82
2021/08/28 07:05:59;;;;;;;5.80;3.15;;;17.20;98.40;;;;;;5068134;28;20028;-82
2021/08/28 07:08:25;;;;;;;5.13;2.95;;;17.30;98.50;;;;;;5050272;28;20032;-82
2021/08/28 07:10:50;;;;;;;4.95;3.08;;;17.30;98.50;;;;;;5037587;28;20052;-82
2021/08/28 07:13:16;;;;;;;5.10;3.22;;;17.30;98.50;;;;;;5061861;28;20035;-81
2021/08/28 07:15:42;;;;;;;7.03;3.45;;;17.30;98.60;;;;;;5068422;28;20130;-83
2021/08/28 07:18:09;;;;;;;5.55;3.05;;;17.30;98.60;;;;;;5094053;28;20036;-82
2021/08/28 07:20:35;;;;;;;6.13;3.10;;;17.40;98.60;;;;;;5058812;28;20028;-83
2021/08/28 07:23:01;;;;;;;7.15;4.03;;;17.40;98.60;;;;;;5075684;28;20044;-83
2021/08/28 07:25:27;;;;;;;5.50;3.00;;;17.40;98.70;;;;;;5080115;28;20032;-82
2021/08/28 07:27:53;;;;;;;5.97;3.00;;;17.40;98.70;;;;;;5065000;28;20094;-83
2021/08/28 07:30:18;;;;;;;7.43;3.40;;;17.40;98.70;;;;;;5041361;28;20040;-83
2021/08/28 07:32:44;;;;;;;5.50;3.20;;;17.50;98.70;;;;;;5071743;28;20020;-82
2021/08/28 07:35:11;;;;;;;4.93;2.80;;;17.50;98.70;;;;;;5074503;28;20024;-86
2021/08/28 07:37:37;;;;;;;7.43;3.60;;;17.50;98.70;;;;;;5073318;28;20391;-83
2021/08/28 07:40:04;;;;;;;7.97;3.17;;;17.60;98.80;;;;;;5070672;28;20025;-83
2021/08/28 07:42:30;;;;;;;7.30;3.45;;;17.60;98.80;;;;;;5065533;28;20029;-84
2021/08/28 07:44:56;;;;;;;5.57;3.30;;;17.60;98.80;;;;;;5043954;28;20449;-85
2021/08/28 07:47:22;;;;;;;6.85;3.50;;;17.60;98.80;;;;;;5061881;28;20416;-84
2021/08/28 07:49:47;;;;;;;6.75;3.40;;;17.60;98.80;;;;;;5044262;28;20027;-84
2021/08/28 07:52:16;;;;;;;6.15;3.30;;;17.60;98.80;;;;;;5040657;28;20115;-84
2021/08/28 07:54:41;;;;;;;5.60;3.20;;;17.60;98.80;;;;;;5039420;28;20023;-85
2021/08/28 07:57:08;;;;;;;7.25;3.63;;;17.70;98.80;;;;;;5057215;28;20036;-84
2021/08/28 07:59:34;;;;;;;6.05;3.40;;;17.70;98.80;;;;;;5037103;28;20021;-86
2021/08/28 08:01:59;;;;;;;7.47;4.05;;;17.70;98.80;;;;;;5023953;28;20098;-86
2021/08/28 08:04:25;;;;;;;8.20;4.10;;;17.70;98.80;;;;;;5062772;28;20542;-83
2021/08/28 08:06:51;;;;;;;6.30;3.80;;;17.80;98.80;;;;;;5077750;28;20036;-83
2021/08/28 08:09:16;;;;;;;7.20;3.90;;;17.80;98.80;;;;;;5093940;28;20036;-83
2021/08/28 08:11:42;;;;;;;10.13;4.47;;;17.80;98.80;;;;;;5101838;28;20013;-85
2021/08/28 08:14:08;;;;;;;7.82;3.58;;;17.80;98.80;;;;;;5085121;28;20005;-83
2021/08/28 08:16:34;;;;;;;7.93;3.58;;;17.80;98.80;;;;;;5075664;28;20050;-83
2021/08/28 08:19:00;;;;;;;5.72;3.40;;;17.80;98.80;;;;;;5076186;28;20156;-92
2021/08/28 08:21:25;;;;;;;6.75;3.53;;;17.90;98.80;;;;;;5069100;28;20021;-88
2021/08/28 08:23:51;;;;;;;6.07;3.60;;;17.90;98.80;;;;;;5051243;28;20049;-82
2021/08/28 08:26:17;;;;;;;7.38;3.80;;;17.90;98.80;;;;;;5069834;28;20025;-82
2021/08/28 08:28:42;;;;;;;7.43;3.80;;;17.90;98.80;;;;;;5043470;28;20029;-83
2021/08/28 08:31:08;;;;;;;7.93;3.80;;;18.00;98.80;;;;;;5048246;28;20028;-82
2021/08/28 08:33:34;;;;;;;7.32;3.38;;;18.00;98.80;;;;;;5061295;28;20032;-82
2021/08/28 08:35:59;;;;;;;6.78;3.55;;;18.00;98.80;;;;;;5075503;28;20044;-82
2021/08/28 08:38:25;;;;;;;5.30;3.38;;;18.00;98.80;;;;;;5050106;28;20025;-82
2021/08/28 08:40:51;;;;;;;8.07;3.70;;;18.00;98.80;;;;;;5092119;28;20023;-82
2021/08/28 08:43:17;;;;;;;8.52;4.30;;;18.10;98.80;;;;;;5099496;28;20027;-86
2021/08/28 08:45:46;;;;;;;7.63;4.43;;;18.10;98.80;;;;;;5099433;28;20066;-87
2021/08/28 08:48:13;;;;;;;7.88;3.95;;;18.10;98.80;;;;;;5055943;28;20116;-91
2021/08/28 08:50:40;;;;;;;6.55;4.15;;;18.20;98.80;;;;;;5043715;28;20072;-91
2021/08/28 08:53:07;;;;;;;7.07;3.95;;;18.20;98.80;;;;;;5044168;28;20036;-90
2021/08/28 08:55:37;;;;;;;6.72;4.00;;;18.20;98.80;;;;;;5043829;28;20390;-87
2021/08/28 08:58:03;;;;;;;6.72;3.92;;;18.20;98.80;;;;;;5077596;28;20044;-88
2021/08/28 09:00:28;;;;;;;6.05;3.90;;;18.30;98.80;;;;;;5083533;28;20448;-86
2021/08/28 09:02:54;;;;;;;7.28;4.28;;;18.30;98.80;;;;;;5078626;28;20036;-84
2021/08/28 09:05:20;;;;;;;6.43;4.18;;;18.40;98.80;;;;;;5061102;28;20056;-85
2021/08/28 09:07:45;;;;;;;6.78;4.32;;;18.40;98.70;;;;;;5060538;28;20043;-85
2021/08/28 09:10:12;;;;;;;7.88;4.00;;;18.40;98.70;;;;;;5040545;28;20035;-84
2021/08/28 09:12:40;;;;;;;5.70;3.95;;;18.50;98.70;;;;;;5070046;28;20039;-85
2021/08/28 09:15:08;;;;;;;7.32;4.07;;;18.50;98.60;;;;;;5074854;28;20042;-84
2021/08/28 09:17:35;;;;;;;7.10;3.72;;;18.50;98.60;;;;;;5061206;28;20039;-83
2021/08/28 09:20:02;;;;;;;6.72;3.88;;;18.50;98.60;;;;;;5059293;28;20384;-85
2021/08/28 09:22:32;;;;;;;6.55;4.45;;;18.60;98.60;;;;;;5076905;28;20039;-85
2021/08/28 09:25:03;;;;;;;7.13;4.32;;;18.60;98.50;;;;;;5059834;28;20535;-89
2021/08/28 09:27:43;;;;;;;5.00;3.50;;;18.60;98.40;;;;;;5088216;28;20095;-88
2021/08/28 09:30:28;;;;;;;6.07;3.85;;;18.60;98.40;;;;;;5050551;28;20469;-90
2021/08/28 09:33:02;;;;;;;7.47;4.05;;;18.70;98.30;;;;;;5056593;28;20091;-89
2021/08/28 09:35:33;;;;;;;8.10;4.55;;;18.70;98.30;;;;;;5050193;28;20492;-88
2021/08/28 09:38:05;;;;;;;11.18;4.40;;;18.70;98.20;;;;;;5075123;28;20063;-90
2021/08/28 09:40:35;;;;;;;6.88;3.80;;;18.70;98.20;;;;;;5087610;28;20108;-93
2021/08/28 09:43:13;;;;;;;5.88;3.67;;;18.80;98.20;;;;;;5074996;28;20016;-91
2021/08/28 09:45:39;;;;;;;6.55;3.90;;;18.80;98.10;;;;;;5075173;28;20031;-90
2021/08/28 09:48:09;;;;;;;6.65;4.07;;;18.80;98.10;;;;;;5057311;28;20028;-88
2021/08/28 09:50:41;;;;;;;6.90;3.80;;;18.80;98.00;;;;;;5066857;28;20145;-89
2021/08/28 09:53:09;;;;;;;7.78;3.70;;;18.90;98.00;;;;;;5074333;28;20021;-87
2021/08/28 09:55:37;;;;;;;7.10;4.25;;;18.90;98.00;;;;;;5058334;28;20068;-87
2021/08/28 09:58:08;;;;;;;6.05;3.88;;;18.90;98.00;;;;;;5060867;28;20129;-88
2021/08/28 10:00:40;;;;;;;5.30;3.50;;;19.00;98.00;;;;;;5077927;28;20027;-89
2021/08/28 10:03:06;;;;;;;7.50;3.70;;;19.00;97.90;;;;;;5076583;28;20077;-92
2021/08/28 10:05:34;;;;;;;5.15;3.45;;;19.00;97.80;;;;;;5041853;28;20516;-93
2021/08/28 10:08:05;;;;;;;5.20;3.55;;;19.10;97.80;;;;;;5072946;28;20028;-91
2021/08/28 10:10:33;;;;;;;5.43;3.53;;;19.10;97.70;;;;;;5061054;28;20181;-92
2021/08/28 10:13:03;;;;;;;6.55;3.70;;;19.10;97.70;;;;;;5058938;28;20021;-96
2021/08/28 10:15:31;;;;;;;5.60;3.28;;;19.20;97.70;;;;;;5072734;28;20081;-89
2021/08/28 10:17:58;;;;;;;6.47;3.30;;;19.20;97.60;;;;;;5071561;28;20025;-93
2021/08/28 10:20:26;;;;;;;7.10;3.78;;;19.20;97.60;;;;;;5057737;28;20025;-91
2021/08/28 10:22:57;;;;;;;6.38;3.50;;;19.30;97.60;;;;;;5086693;28;20056;-92
2021/08/28 10:25:25;;;;;;;4.75;3.25;;;19.30;97.50;;;;;;5075528;28;20016;-85
2021/08/28 10:27:52;;;;;;;5.30;3.38;;;19.40;97.40;;;;;;5092242;28;20434;-83
2021/08/28 10:30:19;;;;;;;4.78;3.00;;;19.40;97.30;;;;;;5075321;28;20031;-84
2021/08/28 10:32:46;;;;;;;5.00;3.13;;;19.40;97.20;;;;;;5072998;28;20024;-84
2021/08/28 10:35:13;;;;;;;6.30;3.28;;;19.50;97.10;;;;;;5072927;28;20020;-84
2021/08/28 10:37:40;;;;;;;5.13;3.05;;;19.50;97.00;;;;;;5066222;28;20059;-84
2021/08/28 10:40:10;;;;;;;4.38;2.70;;;19.50;96.90;;;;;;5063718;28;20574;-84
2021/08/28 10:42:38;;;;;;;5.60;3.53;;;19.50;96.80;;;;;;5069543;28;20024;-84
2021/08/28 10:45:04;;;;;;;6.72;3.35;;;19.50;96.60;;;;;;5045088;28;20025;-84
2021/08/28 10:47:34;;;;;;;4.03;2.85;;;19.60;96.60;;;;;;5037704;28;20030;-84
2021/08/28 10:50:19;;;;;;;3.83;2.75;;;19.60;96.50;;;;;;5056523;28;20468;-83
2021/08/28 10:52:50;;;;;;;3.75;2.60;;;19.60;96.40;;;;;;5085880;28;20388;-84
2021/08/28 10:55:16;;;;;;;4.70;2.88;;;19.70;96.40;;;;;;5074326;28;20063;-83
2021/08/28 10:57:42;;;;;;;5.68;2.85;;;19.70;96.30;;;;;;5057492;28;20122;-84
2021/08/28 11:00:17;;;;;;;4.15;2.80;;;19.70;96.30;;;;;;5058523;28;20467;-85
2021/08/28 11:02:50;;;;;;;3.92;2.60;;;19.70;96.20;;;;;;5086182;28;20375;-84
2021/08/28 11:05:32;;;;;;;4.55;3.05;;;19.80;96.10;;;;;;5037650;28;20021;-84
2021/08/28 11:08:13;;;;;;;4.82;2.83;;;19.80;96.10;;;;;;5076815;28;20020;-85
2021/08/28 11:10:39;;;;;;;3.67;2.70;;;19.90;96.10;;;;;;5063535;28;20027;-84
2021/08/28 11:13:05;;;;;;;4.05;2.60;;;19.90;96.00;;;;;;5075753;28;20024;-84
2021/08/28 11:15:34;;;;;;;5.38;2.63;;;19.90;95.90;;;;;;5052897;28;20025;-85
2021/08/28 11:18:07;;;;;;;5.15;2.80;;;20.00;95.90;;;;;;5072102;22;20057;-83
2021/08/28 11:20:35;;;;;;;4.68;2.80;;;20.10;95.70;;;;;;5061825;22;20180;-81
2021/08/28 11:23:03;;;;;;;5.03;2.92;;;20.10;95.60;;;;;;5050770;28;20037;-81
2021/08/28 11:25:35;;;;;;;3.60;2.65;;;20.20;95.40;;;;;;5034953;28;20024;-81
2021/08/28 11:28:04;;;;;;;5.35;2.60;;;20.20;95.30;;;;;;5048487;28;20512;-81
2021/08/28 11:30:45;;;;;;;4.63;3.10;;;20.20;95.20;;;;;;5053054;28;20079;-81
2021/08/28 11:33:24;;;;;;;4.03;2.63;;;20.30;95.20;;;;;;5052651;28;20467;-81
2021/08/28 11:35:51;;;;;;;4.30;2.55;;;20.30;95.20;;;;;;5034402;28;20025;-81
2021/08/28 11:38:23;;;;;;;5.13;2.40;;;20.30;95.10;;;;;;5034605;28;20111;-81
2021/08/28 11:41:04;;;;;;;4.28;2.40;;;20.40;95.20;;;;;;5034476;28;20545;-81
2021/08/28 11:43:34;;;;;;;;;;;20.40;95.20;;;;;;5034947;28;20024;-80
2021/08/28 11:46:02;;;;;;;4.40;2.60;;;20.50;95.20;;;;;;5034183;28;19976;-81
2021/08/28 11:48:29;;;;;;;5.45;2.72;;;20.50;95.10;;;;;;5037615;28;20026;-83
2021/08/28 11:50:55;;;;;;;4.72;2.53;;;20.50;95.00;;;;;;5043947;28;20380;-83
2021/08/28 11:53:26;;;;;;;5.28;2.60;;;20.60;94.90;;;;;;5037996;28;20044;-83
2021/08/28 11:56:02;;;;;;;4.03;2.65;;;20.60;94.80;;;;;;5061739;28;20081;-82
2021/08/28 11:58:27;;;;;;;3.80;2.17;;;20.70;94.70;;;;;;5051821;28;20021;-83
2021/08/28 12:00:53;;;;;;;4.50;2.33;;;20.70;94.60;;;;;;5035168;28;20111;-82
2021/08/28 12:03:19;;;;;;;4.68;2.45;;;20.80;94.50;;;;;;5001299;28;20041;-81
2021/08/28 12:05:44;;;;;;;3.97;2.63;;;20.80;94.50;;;;;;5034939;28;20072;-82
2021/08/28 12:08:14;;;;;;;5.97;3.15;;;20.80;94.50;;;;;;5031333;28;20044;-82
2021/08/28 12:10:44;;;;;;;3.83;2.35;;;20.90;94.40;;;;;;5054008;28;20092;-86
2021/08/28 12:13:09;;;;;;;4.82;2.58;;;20.90;94.30;;;;;;5040390;28;20098;-84
2021/08/28 12:15:35;;;;;;;5.75;2.47;;;21.00;94.30;;;;;;5047645;28;20036;-86
2021/08/28 12:18:01;;;;;;;4.57;2.42;;;21.00;94.30;;;;;;5013655;28;20024;-88
2021/08/28 12:20:30;;;;;;;4.78;2.53;;;21.00;94.30;;;;;;5023350;28;20028;-85
2021/08/28 12:23:03;;;;;;;6.07;2.72;;;21.00;94.10;;;;;;5073568;28;20123;-84
2021/08/28 12:25:29;;;;;;;4.40;2.40;;;21.10;94.10;;;;;;5074354;28;20020;-87
2021/08/28 12:27:55;;;;;;;3.78;2.28;;;21.10;93.70;;;;;;5048993;28;20501;-87
2021/08/28 12:30:23;;;;;;;4.88;2.53;;;21.10;93.70;;;;;;5068519;28;20032;-87
2021/08/28 12:32:49;;;;;;;4.45;2.75;;;21.10;93.70;;;;;;5054397;28;20020;-88
2021/08/28 12:35:15;;;;;;;5.53;2.90;;;21.00;93.50;;;;;;5050774;28;20043;-87
2021/08/28 12:37:41;;;;;;;5.85;2.47;;;21.10;93.50;;;;;;5052541;28;20025;-88
2021/08/28 12:40:13;;;;;;;5.63;2.47;;;21.00;93.30;;;;;;5048399;28;20073;-87
2021/08/28 12:42:40;;;;;;;4.85;2.40;;;21.00;93.30;;;;;;5059515;28;20020;-87
2021/08/28 12:45:09;;;;;;;8.02;2.80;;;21.00;93.20;;;;;;5047607;28;20477;-87
2021/08/28 12:47:43;;;;;;;5.47;2.55;;;21.00;93.20;;;;;;5051711;28;20505;-87
2021/08/28 12:50:09;;;;;;;5.65;2.92;;;21.00;92.80;;;;;;5048032;28;20109;-87